Time;durP1;ratioP1;P1;durP2;ratioP2;P2;SDS_P1;SDS_P2;PMS_P1;PMS_P2;Temp;Humidity;BMP_temperature;BMP_pressure;BME280_temperature;BME280_humidity;BME280_pressure;Samples;Min_cycle;Max_cycle;Signal;HPM_P1;HPM_P2
2021/03/07 00:02:16;;;;;;;3.30;1.90;;;12.60;92.70;;;;;;5074182;28;20514;-39
2021/03/07 00:04:48;;;;;;;2.07;1.53;;;12.60;92.40;;;;;;5075963;28;20482;-38
2021/03/07 00:07:18;;;;;;;1.57;1.43;;;12.60;92.40;;;;;;5083479;28;20500;-39
2021/03/07 00:09:48;;;;;;;1.73;1.63;;;12.80;92.40;;;;;;5074056;28;20501;-40
2021/03/07 00:12:18;;;;;;;1.83;1.20;;;13.00;90.90;;;;;;5071483;28;20443;-39
2021/03/07 00:14:48;;;;;;;1.60;0.97;;;13.00;92.70;;;;;;5080470;28;20458;-40
2021/03/07 00:17:19;;;;;;;3.40;1.70;;;13.00;94.00;;;;;;5082984;28;20466;-40
2021/03/07 00:19:50;;;;;;;1.73;1.47;;;12.90;93.40;;;;;;5081735;28;20443;-39
2021/03/07 00:22:20;;;;;;;1.67;1.07;;;12.70;93.20;;;;;;5073705;28;20502;-40
2021/03/07 00:24:50;;;;;;;1.90;1.43;;;12.50;94.60;;;;;;5074348;28;20495;-41
2021/03/07 00:27:21;;;;;;;2.00;1.23;;;12.30;94.70;;;;;;5081251;28;20519;-41
2021/03/07 00:29:51;;;;;;;2.80;2.60;;;12.40;94.20;;;;;;5081831;28;20456;-42
2021/03/07 00:32:21;;;;;;;2.20;1.40;;;12.40;94.60;;;;;;5071905;28;20499;-41
2021/03/07 00:34:52;;;;;;;1.80;1.47;;;12.30;93.70;;;;;;5068290;28;20522;-39
2021/03/07 00:37:22;;;;;;;14.77;2.23;;;12.40;94.90;;;;;;5071352;28;20485;-38
2021/03/07 00:39:53;;;;;;;1.60;1.30;;;12.30;94.00;;;;;;5069619;28;20455;-38
2021/03/07 00:42:23;;;;;;;2.90;1.60;;;12.20;94.50;;;;;;5070145;28;20448;-37
2021/03/07 00:44:53;;;;;;;3.13;2.10;;;12.30;94.90;;;;;;5069865;28;20523;-38
2021/03/07 00:47:23;;;;;;;2.37;1.47;;;12.20;95.90;;;;;;5080596;28;20478;-38
2021/03/07 00:49:54;;;;;;;2.20;1.20;;;12.20;96.30;;;;;;5066408;28;20477;-39
2021/03/07 00:52:25;;;;;;;1.90;1.40;;;12.10;96.00;;;;;;5072982;28;20510;-37
2021/03/07 00:54:55;;;;;;;3.30;1.60;;;12.00;96.20;;;;;;5065516;28;20459;-38
2021/03/07 00:57:25;;;;;;;2.70;1.60;;;11.90;95.60;;;;;;5074337;28;20442;-38
2021/03/07 00:59:55;;;;;;;1.73;1.63;;;11.90;96.30;;;;;;5064369;28;20489;-38
2021/03/07 01:02:26;;;;;;;1.60;1.50;;;11.90;95.30;;;;;;5071762;28;20457;-37
2021/03/07 01:04:58;;;;;;;1.50;1.40;;;12.00;95.10;;;;;;5073394;28;20479;-38
2021/03/07 01:07:28;;;;;;;2.73;1.77;;;11.90;96.10;;;;;;5071528;28;20458;-38
2021/03/07 01:09:58;;;;;;;5.17;2.17;;;11.90;95.90;;;;;;5072324;28;20473;-38
2021/03/07 01:12:28;;;;;;;2.33;2.13;;;11.90;97.20;;;;;;5074803;28;20454;-38
2021/03/07 01:14:58;;;;;;;2.87;2.07;;;11.80;97.20;;;;;;5071620;28;20467;-38
2021/03/07 01:17:30;;;;;;;2.47;2.27;;;11.70;96.50;;;;;;5070257;28;20544;-38
2021/03/07 01:20:03;;;;;;;2.67;2.47;;;11.60;97.50;;;;;;5069789;28;20439;-38
2021/03/07 01:22:45;;;;;;;4.30;2.13;;;11.40;99.50;;;;;;5067829;28;20455;-38
2021/03/07 01:25:15;;;;;;;4.53;2.13;;;11.30;98.80;;;;;;5080543;28;20472;-38
2021/03/07 01:27:45;;;;;;;3.47;2.00;;;11.30;98.10;;;;;;5070356;28;20524;-38
2021/03/07 01:30:17;;;;;;;1.67;1.57;;;11.30;98.80;;;;;;5070536;28;20461;-38
2021/03/07 01:32:47;;;;;;;2.03;1.83;;;11.20;98.40;;;;;;5077201;28;20495;-41
2021/03/07 01:35:20;;;;;;;2.28;1.92;;;11.10;98.30;;;;;;5078652;28;20542;-39
2021/03/07 01:37:51;;;;;;;3.05;2.45;;;11.00;99.50;;;;;;5086065;28;20207;-40
2021/03/07 01:40:26;;;;;;;1.90;1.70;;;10.90;99.60;;;;;;5083496;28;20211;-40
2021/03/07 01:42:59;;;;;;;2.05;1.85;;;10.90;99.70;;;;;;5072655;28;20206;-39
2021/03/07 01:45:30;;;;;;;3.17;2.33;;;10.80;99.90;;;;;;5069283;28;20714;-40
2021/03/07 01:48:01;;;;;;;2.20;2.00;;;10.70;99.90;;;;;;5076833;28;20945;-40
2021/03/07 01:50:35;;;;;;;2.50;2.10;;;10.70;99.90;;;;;;5068005;28;20249;-42
2021/03/07 01:53:05;;;;;;;3.83;2.75;;;10.60;99.90;;;;;;5068421;28;20222;-46
2021/03/07 01:55:37;;;;;;;2.90;2.60;;;10.60;99.90;;;;;;5067124;28;20199;-41
2021/03/07 01:58:12;;;;;;;2.60;2.40;;;10.60;99.90;;;;;;5067678;28;20207;-44
2021/03/07 02:00:42;;;;;;;2.33;2.13;;;10.50;99.90;;;;;;5077164;28;20207;-45
2021/03/07 02:03:12;;;;;;;2.80;2.50;;;10.40;99.90;;;;;;5073434;28;20909;-43
2021/03/07 02:05:45;;;;;;;2.80;2.33;;;10.40;99.90;;;;;;5069358;28;20505;-40
2021/03/07 02:08:15;;;;;;;2.47;2.28;;;10.40;99.90;;;;;;5078479;28;20664;-40
2021/03/07 02:10:49;;;;;;;2.85;2.00;;;10.30;99.90;;;;;;5084994;28;20210;-40
2021/03/07 02:13:23;;;;;;;3.53;2.63;;;10.20;99.90;;;;;;5077870;28;20210;-41
2021/03/07 02:15:56;;;;;;;3.10;1.80;;;10.30;99.90;;;;;;5067761;28;20204;-40
2021/03/07 02:18:28;;;;;;;2.72;2.53;;;10.30;99.90;;;;;;5072010;28;20223;-42
2021/03/07 02:21:02;;;;;;;2.10;2.00;;;10.30;99.90;;;;;;5085620;28;20201;-42
2021/03/07 02:23:36;;;;;;;3.33;2.40;;;10.30;99.90;;;;;;5071801;28;20219;-45
2021/03/07 02:26:07;;;;;;;2.63;2.30;;;10.20;99.90;;;;;;5065156;28;20218;-49
2021/03/07 02:28:38;;;;;;;3.75;2.70;;;10.20;99.90;;;;;;5066106;28;20209;-44
2021/03/07 02:31:08;;;;;;;2.58;2.38;;;10.20;99.90;;;;;;5073473;28;20220;-46
2021/03/07 02:33:41;;;;;;;6.10;3.15;;;10.10;99.90;;;;;;5074961;28;20206;-43
2021/03/07 02:36:15;;;;;;;2.65;2.35;;;10.10;99.90;;;;;;5078113;28;20241;-42
2021/03/07 02:38:48;;;;;;;2.72;2.50;;;10.10;99.90;;;;;;5066136;28;20183;-43
2021/03/07 02:41:19;;;;;;;3.20;2.83;;;10.00;99.90;;;;;;5066042;28;20261;-44
2021/03/07 02:43:54;;;;;;;2.95;2.30;;;9.90;99.90;;;;;;5069942;28;20793;-44
2021/03/07 02:46:25;;;;;;;2.90;2.70;;;9.80;99.90;;;;;;5077728;28;20220;-42
2021/03/07 02:48:58;;;;;;;3.25;2.95;;;9.80;99.90;;;;;;5077361;28;20612;-45
2021/03/07 02:51:30;;;;;;;3.50;2.80;;;9.90;99.90;;;;;;5079726;28;20202;-40
2021/03/07 02:54:06;;;;;;;2.70;2.50;;;9.90;99.90;;;;;;5076330;28;20239;-42
2021/03/07 02:56:38;;;;;;;4.03;3.40;;;9.80;99.90;;;;;;5083102;28;20227;-43
2021/03/07 02:59:12;;;;;;;3.97;3.35;;;9.80;99.90;;;;;;5076823;28;20265;-41
2021/03/07 03:01:42;;;;;;;3.53;3.20;;;9.80;99.90;;;;;;5072095;28;20194;-43
2021/03/07 03:04:15;;;;;;;4.00;3.53;;;9.80;99.90;;;;;;5069476;28;20340;-41
2021/03/07 03:06:45;;;;;;;4.68;3.75;;;9.70;99.90;;;;;;5079234;28;20203;-42
2021/03/07 03:09:17;;;;;;;3.30;3.00;;;9.60;99.90;;;;;;5076054;28;20273;-40
2021/03/07 03:11:52;;;;;;;4.40;4.00;;;9.60;99.90;;;;;;5069863;28;20240;-42
2021/03/07 03:14:23;;;;;;;4.70;4.22;;;9.60;99.90;;;;;;5066386;28;20274;-42
2021/03/07 03:16:59;;;;;;;6.22;4.50;;;9.60;99.90;;;;;;5072722;28;20313;-42
2021/03/07 03:19:34;;;;;;;6.75;4.70;;;9.50;99.90;;;;;;5081370;28;20292;-40
2021/03/07 03:22:04;;;;;;;5.65;4.80;;;9.50;99.90;;;;;;5075538;28;20275;-42
2021/03/07 03:24:35;;;;;;;8.85;4.63;;;9.30;99.90;;;;;;5081853;28;20237;-43
2021/03/07 03:27:08;;;;;;;5.80;5.20;;;9.40;99.90;;;;;;5084478;28;20271;-46
2021/03/07 03:29:39;;;;;;;7.72;5.40;;;9.30;99.90;;;;;;5080422;28;20225;-42
2021/03/07 03:32:09;;;;;;;7.60;6.57;;;9.30;99.90;;;;;;5084175;28;20643;-44
2021/03/07 03:34:40;;;;;;;6.80;6.10;;;9.30;99.90;;;;;;5078898;28;20195;-40
2021/03/07 03:37:10;;;;;;;5.88;5.10;;;9.30;99.90;;;;;;5075514;28;20192;-42
2021/03/07 03:39:41;;;;;;;6.28;5.70;;;9.20;99.90;;;;;;5064369;28;20194;-40
2021/03/07 03:42:12;;;;;;;6.40;5.80;;;9.20;99.90;;;;;;5066882;28;20288;-42
2021/03/07 03:44:44;;;;;;;5.70;5.10;;;9.10;99.90;;;;;;5066736;28;20259;-42
2021/03/07 03:47:16;;;;;;;8.20;7.40;;;9.10;99.90;;;;;;5064350;28;20202;-42
2021/03/07 03:49:54;;;;;;;10.65;6.43;;;9.10;99.90;;;;;;5063953;28;20646;-41
2021/03/07 03:52:26;;;;;;;6.35;5.32;;;9.00;99.90;;;;;;5064164;28;20241;-41
2021/03/07 03:55:01;;;;;;;5.72;5.10;;;9.00;99.90;;;;;;5065995;28;20201;-42
2021/03/07 03:57:33;;;;;;;9.75;7.10;;;8.90;99.90;;;;;;5065484;28;20210;-41
2021/03/07 04:00:08;;;;;;;6.80;6.10;;;9.00;99.90;;;;;;5072054;28;20259;-43
2021/03/07 04:02:39;;;;;;;8.05;6.90;;;9.00;99.90;;;;;;5081207;28;20209;-41
2021/03/07 04:05:12;;;;;;;7.30;6.38;;;9.10;99.90;;;;;;5074832;28;20229;-42
2021/03/07 04:07:42;;;;;;;9.63;7.47;;;9.00;99.90;;;;;;5076206;28;20919;-40
2021/03/07 04:10:15;;;;;;;7.13;6.50;;;9.00;99.90;;;;;;5075381;28;20619;-40
2021/03/07 04:12:47;;;;;;;7.78;7.05;;;8.90;99.90;;;;;;5078819;28;20206;-41
2021/03/07 04:15:21;;;;;;;8.00;7.20;;;8.90;99.90;;;;;;5077373;28;20212;-41
2021/03/07 04:17:53;;;;;;;7.28;6.55;;;8.90;99.90;;;;;;5078995;28;20311;-40
2021/03/07 04:20:25;;;;;;;8.13;6.97;;;8.90;99.90;;;;;;5081855;28;20201;-41
2021/03/07 04:22:56;;;;;;;7.97;7.13;;;8.90;99.90;;;;;;5079385;28;20198;-40
2021/03/07 04:25:27;;;;;;;10.55;8.30;;;8.90;99.90;;;;;;5075335;28;20226;-40
2021/03/07 04:27:58;;;;;;;11.23;9.18;;;8.80;99.90;;;;;;5081095;28;20300;-40
2021/03/07 04:30:29;;;;;;;10.73;9.63;;;8.80;99.90;;;;;;5078461;28;20275;-40
2021/03/07 04:33:00;;;;;;;12.63;10.88;;;8.80;99.90;;;;;;5068582;28;20218;-39
2021/03/07 04:35:31;;;;;;;11.07;9.80;;;8.70;99.90;;;;;;5067565;28;20220;-39
2021/03/07 04:38:01;;;;;;;11.55;10.38;;;8.70;99.90;;;;;;5083139;28;20220;-39
2021/03/07 04:40:32;;;;;;;14.60;10.60;;;8.70;99.90;;;;;;5072679;28;20228;-39
2021/03/07 04:43:04;;;;;;;10.70;9.70;;;8.60;99.90;;;;;;5068136;28;20206;-39
2021/03/07 04:45:34;;;;;;;10.15;9.15;;;8.70;99.90;;;;;;5065232;28;20737;-39
2021/03/07 04:48:05;;;;;;;11.18;10.07;;;8.80;99.90;;;;;;5071987;28;20551;-39
2021/03/07 04:50:35;;;;;;;11.63;10.52;;;8.80;99.90;;;;;;5082999;28;20221;-39
2021/03/07 04:53:06;;;;;;;11.20;10.10;;;8.70;99.90;;;;;;5081481;28;20202;-43
2021/03/07 04:55:35;;;;;;;13.18;11.77;;;8.50;99.90;;;;;;5071484;28;20628;-39
2021/03/07 04:58:07;;;;;;;12.73;11.18;;;8.50;99.90;;;;;;5077713;28;20235;-39
2021/03/07 05:00:37;;;;;;;10.23;8.52;;;8.50;99.90;;;;;;5081420;28;20206;-40
2021/03/07 05:03:07;;;;;;;10.95;9.95;;;8.70;99.90;;;;;;5081257;28;20205;-39
2021/03/07 05:05:37;;;;;;;10.25;9.23;;;8.70;99.90;;;;;;5080215;28;20275;-39
2021/03/07 05:08:07;;;;;;;10.88;9.88;;;8.80;99.90;;;;;;5081708;28;20198;-38
2021/03/07 05:10:37;;;;;;;12.13;10.13;;;8.80;99.90;;;;;;5087043;28;20194;-39
2021/03/07 05:13:09;;;;;;;11.40;10.30;;;8.90;99.90;;;;;;5079617;28;20205;-39
2021/03/07 05:15:40;;;;;;;13.10;11.80;;;9.00;99.90;;;;;;5081692;28;20222;-39
2021/03/07 05:18:11;;;;;;;13.70;12.30;;;9.00;99.90;;;;;;5069539;28;20231;-41
2021/03/07 05:20:41;;;;;;;15.95;14.35;;;9.10;99.90;;;;;;5084666;28;20563;-39
2021/03/07 05:23:11;;;;;;;15.10;13.60;;;9.10;99.90;;;;;;5077893;28;20213;-39
2021/03/07 05:25:41;;;;;;;13.98;12.57;;;9.20;99.90;;;;;;5072418;28;20232;-39
2021/03/07 05:28:12;;;;;;;14.23;12.68;;;9.10;99.90;;;;;;5074206;28;20206;-39
2021/03/07 05:30:42;;;;;;;8.65;7.72;;;9.00;99.90;;;;;;5079056;28;20205;-39
2021/03/07 05:33:15;;;;;;;5.30;4.80;;;8.90;99.90;;;;;;5084028;28;20236;-38
2021/03/07 05:35:47;;;;;;;3.35;2.60;;;8.60;99.90;;;;;;5075139;28;20202;-37
2021/03/07 05:38:18;;;;;;;1.35;1.25;;;8.40;99.90;;;;;;5071212;28;20225;-37
2021/03/07 05:40:48;;;;;;;2.00;1.63;;;8.00;99.90;;;;;;5071791;28;20209;-35
2021/03/07 05:43:19;;;;;;;2.63;2.22;;;7.60;99.90;;;;;;5070604;28;20213;-35
2021/03/07 05:45:49;;;;;;;2.35;2.15;;;7.40;99.90;;;;;;5068720;28;20255;-35
2021/03/07 05:48:20;;;;;;;3.60;2.40;;;7.30;99.90;;;;;;5069259;28;20278;-35
2021/03/07 05:50:51;;;;;;;3.53;3.22;;;7.30;99.90;;;;;;5066172;28;20205;-35
2021/03/07 05:53:21;;;;;;;3.83;3.30;;;7.30;99.90;;;;;;5080329;28;20201;-34
2021/03/07 05:55:52;;;;;;;4.97;4.47;;;7.30;99.90;;;;;;5065075;28;20268;-34
2021/03/07 05:58:26;;;;;;;4.78;4.38;;;7.30;99.90;;;;;;5080829;28;20236;-35
2021/03/07 06:00:56;;;;;;;6.05;4.60;;;7.30;99.90;;;;;;5069811;28;20206;-35
2021/03/07 06:03:26;;;;;;;4.65;4.22;;;7.20;99.90;;;;;;5075380;28;20229;-38
2021/03/07 06:05:57;;;;;;;5.05;4.60;;;7.30;99.90;;;;;;5071100;28;20198;-36
2021/03/07 06:08:28;;;;;;;4.65;4.18;;;7.40;99.90;;;;;;5079308;28;20244;-32
2021/03/07 06:10:58;;;;;;;4.90;4.40;;;7.40;99.90;;;;;;5075492;28;20202;-46
2021/03/07 06:13:38;;;;;;;4.70;4.30;;;7.50;99.90;;;;;;5082069;28;20201;-50
2021/03/07 06:16:11;;;;;;;5.20;4.70;;;7.50;99.90;;;;;;5076018;28;20227;-41
2021/03/07 06:18:43;;;;;;;4.85;4.30;;;7.50;99.90;;;;;;5079949;28;20227;-41
2021/03/07 06:21:33;;;;;;;4.90;4.50;;;7.50;99.90;;;;;;5070986;28;20226;-40
2021/03/07 06:24:04;;;;;;;5.75;4.78;;;7.50;99.90;;;;;;5073315;28;20221;-46
2021/03/07 06:26:34;;;;;;;5.38;4.80;;;7.50;99.90;;;;;;5065029;28;20205;-42
2021/03/07 06:29:09;;;;;;;5.80;5.00;;;7.50;99.90;;;;;;5068207;28;20252;-41
2021/03/07 06:31:41;;;;;;;6.70;4.72;;;7.50;99.90;;;;;;5076088;28;20217;-41
2021/03/07 06:34:11;;;;;;;6.07;5.05;;;7.50;99.90;;;;;;5074126;28;20201;-43
2021/03/07 06:36:41;;;;;;;9.00;6.00;;;7.50;99.90;;;;;;5073245;28;20210;-40
2021/03/07 06:39:11;;;;;;;6.70;5.85;;;7.60;99.90;;;;;;5077384;28;20220;-38
2021/03/07 06:41:41;;;;;;;7.78;6.45;;;7.60;99.90;;;;;;5069757;28;20682;-38
2021/03/07 06:44:14;;;;;;;6.88;5.88;;;7.60;99.90;;;;;;5076556;28;20221;-38
2021/03/07 06:46:46;;;;;;;7.25;5.97;;;7.60;99.90;;;;;;5066544;28;20210;-38
2021/03/07 06:49:23;;;;;;;6.25;5.05;;;7.60;99.90;;;;;;5075304;28;20231;-38
2021/03/07 06:51:59;;;;;;;5.90;5.30;;;7.60;99.90;;;;;;5068113;28;20648;-38
2021/03/07 06:54:29;;;;;;;6.38;5.78;;;7.70;99.90;;;;;;5072300;28;20228;-38
2021/03/07 06:56:59;;;;;;;6.82;6.00;;;7.70;99.90;;;;;;5079978;28;20205;-38
2021/03/07 06:59:31;;;;;;;9.27;7.15;;;7.70;99.90;;;;;;5074234;28;20205;-38
2021/03/07 07:02:01;;;;;;;7.45;6.72;;;7.60;99.90;;;;;;5082690;28;20201;-38
2021/03/07 07:04:43;;;;;;;6.50;5.45;;;7.60;99.90;;;;;;5075227;28;20222;-38
2021/03/07 07:07:16;;;;;;;7.65;6.05;;;7.60;99.90;;;;;;5071598;28;20659;-38
2021/03/07 07:09:47;;;;;;;6.55;5.90;;;7.60;99.90;;;;;;5081305;28;20205;-38
2021/03/07 07:12:24;;;;;;;7.32;6.53;;;7.60;99.90;;;;;;5084896;28;20201;-38
2021/03/07 07:15:10;;;;;;;5.95;5.45;;;7.60;99.90;;;;;;5078891;28;20209;-39
2021/03/07 07:17:41;;;;;;;5.50;5.00;;;7.60;99.90;;;;;;5073757;28;20652;-39
2021/03/07 07:20:13;;;;;;;5.57;4.80;;;7.60;99.90;;;;;;5080780;28;20248;-39
2021/03/07 07:22:43;;;;;;;5.00;4.57;;;7.60;99.90;;;;;;5079538;28;20732;-39
2021/03/07 07:25:14;;;;;;;6.63;5.53;;;7.60;99.90;;;;;;5068955;28;20217;-38
2021/03/07 07:27:44;;;;;;;5.10;4.60;;;7.60;99.90;;;;;;5069157;28;20201;-39
2021/03/07 07:30:17;;;;;;;6.13;4.80;;;7.60;99.90;;;;;;5072271;28;20205;-38
2021/03/07 07:32:47;;;;;;;6.05;5.47;;;7.60;99.90;;;;;;5068216;28;20202;-39
2021/03/07 07:35:21;;;;;;;5.53;5.03;;;7.50;99.90;;;;;;5073244;28;20206;-38
2021/03/07 07:37:54;;;;;;;5.50;4.95;;;7.60;99.90;;;;;;5074584;28;20255;-38
2021/03/07 07:40:35;;;;;;;5.18;4.78;;;7.60;99.90;;;;;;5076456;28;20231;-38
2021/03/07 07:43:06;;;;;;;5.25;4.72;;;7.50;99.90;;;;;;5084829;28;20577;-39
2021/03/07 07:45:38;;;;;;;6.18;5.05;;;7.50;99.90;;;;;;5082328;28;20266;-39
2021/03/07 07:48:11;;;;;;;4.70;4.25;;;7.50;99.90;;;;;;5077752;28;20264;-39
2021/03/07 07:50:42;;;;;;;5.25;4.75;;;7.50;99.90;;;;;;5079654;28;20209;-38
2021/03/07 07:53:47;;;;;;;4.88;4.47;;;7.40;99.90;;;;;;5081733;28;20355;-38
2021/03/07 07:56:39;;;;;;;6.00;5.40;;;7.50;99.90;;;;;;5074675;28;20212;-38
2021/03/07 07:59:10;;;;;;;6.15;5.05;;;7.50;99.90;;;;;;5080881;28;20208;-38
2021/03/07 08:01:55;;;;;;;5.90;5.30;;;7.60;99.90;;;;;;5077939;28;20193;-39
2021/03/07 08:04:43;;;;;;;5.90;5.35;;;7.60;99.90;;;;;;5075743;28;20261;-39
2021/03/07 08:07:13;;;;;;;5.65;5.15;;;7.70;99.90;;;;;;5077450;28;20647;-39
2021/03/07 08:09:48;;;;;;;6.10;5.50;;;7.60;99.90;;;;;;5083300;28;20220;-38
2021/03/07 08:12:50;;;;;;;5.72;5.05;;;7.60;99.90;;;;;;5073678;28;20275;-39
2021/03/07 08:15:47;;;;;;;6.25;5.65;;;7.60;99.90;;;;;;5080779;28;20231;-40
2021/03/07 08:18:23;;;;;;;6.05;5.45;;;7.60;99.90;;;;;;5068614;28;20329;-42
2021/03/07 08:21:04;;;;;;;6.85;5.40;;;7.60;99.90;;;;;;5077940;28;20204;-40
2021/03/07 08:23:59;;;;;;;7.30;6.18;;;7.60;99.90;;;;;;5078916;28;20663;-40
2021/03/07 08:26:52;;;;;;;6.72;6.05;;;7.60;99.90;;;;;;5079094;28;20209;-40
2021/03/07 08:29:55;;;;;;;7.40;5.88;;;7.70;99.90;;;;;;5071130;28;20622;-40
2021/03/07 08:32:40;;;;;;;5.90;5.38;;;7.70;99.90;;;;;;5083637;28;20193;-39
2021/03/07 08:35:20;;;;;;;6.03;5.35;;;7.70;99.90;;;;;;5078219;28;20232;-43
2021/03/07 08:38:18;;;;;;;5.60;4.90;;;7.70;99.90;;;;;;5081012;28;20300;-39
2021/03/07 08:40:57;;;;;;;6.03;5.43;;;7.80;99.90;;;;;;5015647;28;20294;-41
2021/03/07 08:43:55;;;;;;;5.40;4.93;;;7.80;99.90;;;;;;5020669;28;20203;-39
2021/03/07 08:46:26;;;;;;;6.45;5.78;;;7.80;99.90;;;;;;5008222;28;20203;-40
2021/03/07 08:49:07;;;;;;;5.68;4.88;;;7.80;99.90;;;;;;5017379;28;20235;-42
2021/03/07 08:51:41;;;;;;;6.55;5.88;;;7.80;99.90;;;;;;5014590;28;20235;-41
2021/03/07 08:54:13;;;;;;;5.47;4.97;;;7.80;99.90;;;;;;5006561;28;20263;-40
2021/03/07 08:56:44;;;;;;;5.18;4.72;;;7.80;99.90;;;;;;5018943;28;20634;-41
2021/03/07 08:59:14;;;;;;;5.13;4.70;;;7.80;99.90;;;;;;5020978;28;20245;-43
2021/03/07 09:01:44;;;;;;;4.90;4.20;;;7.80;99.90;;;;;;5018800;28;20299;-43
2021/03/07 09:04:14;;;;;;;3.97;3.53;;;7.70;99.90;;;;;;5002750;28;20228;-40
2021/03/07 09:06:47;;;;;;;3.47;3.10;;;7.80;99.90;;;;;;5018837;28;20260;-40
2021/03/07 09:09:18;;;;;;;2.17;1.98;;;7.80;99.90;;;;;;5020481;28;20334;-47
2021/03/07 09:11:51;;;;;;;2.70;2.10;;;8.00;99.90;;;;;;5020830;28;20203;-45
2021/03/07 09:14:30;;;;;;;2.95;2.50;;;8.20;99.90;;;;;;5012106;28;20331;-44
2021/03/07 09:17:02;;;;;;;2.70;2.50;;;8.30;99.90;;;;;;5054025;28;20229;-43
2021/03/07 09:19:36;;;;;;;5.07;3.65;;;8.30;99.90;;;;;;5077815;28;20197;-45
2021/03/07 09:22:16;;;;;;;2.80;2.60;;;8.20;99.90;;;;;;5077483;28;20616;-42
2021/03/07 09:24:51;;;;;;;2.53;2.33;;;8.20;99.90;;;;;;5066304;28;20299;-48
2021/03/07 09:27:26;;;;;;;2.58;2.13;;;8.30;99.90;;;;;;5082721;28;20217;-44
2021/03/07 09:30:01;;;;;;;2.70;2.47;;;8.40;99.90;;;;;;5074607;28;20209;-46
2021/03/07 09:32:33;;;;;;;2.72;1.63;;;8.40;99.90;;;;;;5082955;28;20572;-41
2021/03/07 09:35:19;;;;;;;2.58;2.28;;;8.50;99.90;;;;;;5072362;28;20244;-38
2021/03/07 09:38:01;;;;;;;3.30;2.47;;;8.60;99.90;;;;;;5075981;28;20271;-44
2021/03/07 09:40:33;;;;;;;2.83;2.25;;;8.60;99.90;;;;;;5078583;28;20205;-43
2021/03/07 09:43:06;;;;;;;2.60;2.40;;;8.60;99.90;;;;;;5074541;28;20206;-41
2021/03/07 09:45:39;;;;;;;3.25;2.20;;;8.60;99.90;;;;;;5066167;28;20236;-42
2021/03/07 09:48:20;;;;;;;2.42;1.50;;;8.50;99.90;;;;;;5080845;28;20186;-40
2021/03/07 09:50:51;;;;;;;0.82;0.82;;;8.50;99.90;;;;;;5075388;28;20197;-43
2021/03/07 09:53:23;;;;;;;1.38;1.15;;;8.40;99.90;;;;;;5081260;28;20205;-41
2021/03/07 09:55:53;;;;;;;0.93;0.80;;;8.40;99.90;;;;;;5072666;28;20209;-39
2021/03/07 09:58:23;;;;;;;1.55;0.98;;;8.30;99.90;;;;;;5086006;28;20216;-40
2021/03/07 10:00:53;;;;;;;1.50;0.70;;;8.30;99.90;;;;;;5078276;28;20647;-46
2021/03/07 10:03:25;;;;;;;0.90;0.80;;;8.30;99.90;;;;;;5085961;28;20197;-44
2021/03/07 10:06:06;;;;;;;1.52;1.38;;;8.10;99.90;;;;;;5073843;28;20296;-40
2021/03/07 10:08:40;;;;;;;1.75;0.68;;;8.00;99.90;;;;;;5080269;28;20307;-45
2021/03/07 10:11:21;;;;;;;1.25;0.70;;;7.90;99.90;;;;;;5073244;28;20701;-39
2021/03/07 10:14:02;;;;;;;0.75;0.50;;;7.90;99.90;;;;;;5084564;28;20255;-38
2021/03/07 10:19:23;;;;;;;0.60;0.60;;;7.70;99.90;;;;;;5072027;28;20233;-38
2021/03/07 10:21:57;;;;;;;1.00;0.85;;;7.70;99.90;;;;;;5085310;28;20425;-38
2021/03/07 10:24:31;;;;;;;2.75;0.80;;;7.60;99.90;;;;;;5085143;28;20220;-41
2021/03/07 10:27:04;;;;;;;1.00;0.98;;;7.60;99.90;;;;;;5082451;28;20227;-47
2021/03/07 10:29:36;;;;;;;0.60;0.50;;;7.60;99.90;;;;;;5079681;28;20212;-41
2021/03/07 10:32:12;;;;;;;0.40;0.40;;;7.60;99.90;;;;;;5085664;28;20739;-39
2021/03/07 10:34:44;;;;;;;0.82;0.65;;;7.60;99.90;;;;;;5077459;28;20237;-37
2021/03/07 10:37:39;;;;;;;0.63;0.60;;;7.50;99.90;;;;;;5078323;28;20205;-37
2021/03/07 10:40:12;;;;;;;0.60;0.60;;;7.50;99.90;;;;;;5075146;28;20194;-36
2021/03/07 10:42:44;;;;;;;0.50;0.40;;;7.50;99.90;;;;;;5079669;28;20194;-39
2021/03/07 10:45:15;;;;;;;0.50;0.50;;;7.50;99.90;;;;;;5070434;28;20253;-38
2021/03/07 10:47:58;;;;;;;0.95;0.40;;;7.50;99.90;;;;;;5083455;28;20212;-40
2021/03/07 10:50:30;;;;;;;0.40;0.40;;;7.50;99.90;;;;;;5076480;28;20262;-38
2021/03/07 10:53:00;;;;;;;0.95;0.40;;;7.60;99.90;;;;;;5072987;28;20210;-39
2021/03/07 10:55:52;;;;;;;0.60;0.50;;;7.60;99.90;;;;;;5081787;28;20223;-38
2021/03/07 10:58:23;;;;;;;1.15;0.50;;;7.60;99.90;;;;;;5077859;28;20201;-38
2021/03/07 11:00:53;;;;;;;0.43;0.43;;;7.70;99.90;;;;;;5071461;28;20205;-39
2021/03/07 11:03:24;;;;;;;0.45;0.40;;;7.70;99.90;;;;;;5075162;28;20201;-39
2021/03/07 11:05:54;;;;;;;1.00;0.60;;;7.70;99.90;;;;;;5072106;28;20328;-39
2021/03/07 11:08:24;;;;;;;0.70;0.38;;;7.70;99.90;;;;;;5075001;28;20228;-38
2021/03/07 11:10:55;;;;;;;0.70;0.60;;;7.80;99.90;;;;;;5069569;28;20198;-37
2021/03/07 11:13:25;;;;;;;0.50;0.40;;;7.80;99.90;;;;;;5084250;28;20216;-39
2021/03/07 11:15:55;;;;;;;0.93;0.70;;;7.80;99.90;;;;;;5080721;28;20574;-40
2021/03/07 11:18:26;;;;;;;1.60;0.55;;;7.80;99.90;;;;;;5082828;28;20229;-38
2021/03/07 11:20:56;;;;;;;0.60;0.30;;;7.80;99.90;;;;;;5083799;28;20215;-38
2021/03/07 11:23:27;;;;;;;1.73;0.60;;;7.80;99.90;;;;;;5074226;28;20224;-37
2021/03/07 11:25:58;;;;;;;0.52;0.38;;;7.80;99.90;;;;;;5080707;28;20259;-42
2021/03/07 11:28:28;;;;;;;0.45;0.40;;;7.80;99.90;;;;;;5070365;28;20242;-39
2021/03/07 11:30:58;;;;;;;0.88;0.50;;;7.80;99.90;;;;;;5078736;28;20201;-37
2021/03/07 11:33:28;;;;;;;0.98;0.40;;;7.80;99.90;;;;;;5075824;28;20611;-38
2021/03/07 11:35:58;;;;;;;0.40;0.30;;;7.70;99.90;;;;;;5069852;28;20206;-36
2021/03/07 11:38:29;;;;;;;0.30;0.30;;;7.60;99.90;;;;;;5077450;28;20217;-38
2021/03/07 11:41:00;;;;;;;1.15;0.43;;;7.50;99.90;;;;;;5078442;28;20244;-38
2021/03/07 11:43:30;;;;;;;0.65;0.50;;;7.40;99.90;;;;;;5069487;28;20194;-37
2021/03/07 11:46:00;;;;;;;0.50;0.50;;;7.30;99.90;;;;;;5075991;28;20247;-38
2021/03/07 11:48:30;;;;;;;0.95;0.60;;;7.30;99.90;;;;;;5082348;28;20263;-38
2021/03/07 11:51:00;;;;;;;0.88;0.50;;;7.20;99.90;;;;;;5082616;28;20209;-38
2021/03/07 11:53:31;;;;;;;0.60;0.47;;;7.20;99.90;;;;;;5071705;28;20295;-37
2021/03/07 11:56:02;;;;;;;0.47;0.43;;;7.20;99.90;;;;;;5078290;28;20201;-38
2021/03/07 11:58:32;;;;;;;0.88;0.50;;;7.20;99.90;;;;;;5071953;28;20206;-37
2021/03/07 12:01:02;;;;;;;0.63;0.55;;;7.20;99.90;;;;;;5078842;28;20279;-38
2021/03/07 12:03:32;;;;;;;1.38;0.52;;;7.20;99.90;;;;;;5067194;28;20233;-37
2021/03/07 12:06:02;;;;;;;0.85;0.40;;;7.20;99.90;;;;;;5072044;28;20239;-38
2021/03/07 12:08:32;;;;;;;0.73;0.60;;;7.20;99.90;;;;;;5079379;28;20205;-37
2021/03/07 12:11:04;;;;;;;0.82;0.63;;;7.20;99.90;;;;;;5082997;28;20658;-37
2021/03/07 12:13:34;;;;;;;0.55;0.40;;;7.20;99.90;;;;;;5081454;28;20202;-36
2021/03/07 12:18:53;;;;;;;0.50;0.50;;;7.10;99.90;;;;;;5064757;28;20202;-36
2021/03/07 12:21:23;;;;;;;0.95;0.63;;;7.10;99.90;;;;;;5082028;28;20209;-36
2021/03/07 12:23:53;;;;;;;0.95;0.60;;;7.00;99.90;;;;;;5081719;28;20205;-37
2021/03/07 12:26:25;;;;;;;0.40;0.40;;;7.00;99.90;;;;;;5077563;28;20347;-37
2021/03/07 12:28:55;;;;;;;0.40;0.40;;;6.80;99.90;;;;;;5076260;28;20216;-38
2021/03/07 12:31:25;;;;;;;1.50;0.30;;;6.80;99.90;;;;;;5070331;28;20205;-37
2021/03/07 12:33:55;;;;;;;0.70;0.40;;;6.70;99.90;;;;;;5081356;28;20209;-38
2021/03/07 12:36:25;;;;;;;0.30;0.20;;;6.70;99.90;;;;;;5071188;28;20206;-37
2021/03/07 12:38:55;;;;;;;0.40;0.22;;;6.70;99.90;;;;;;5081577;28;20208;-36
2021/03/07 12:41:27;;;;;;;0.60;0.30;;;6.60;99.90;;;;;;5081307;28;20220;-37
2021/03/07 12:43:57;;;;;;;0.43;0.30;;;6.50;99.90;;;;;;5069393;28;20735;-37
2021/03/07 12:46:27;;;;;;;0.50;0.30;;;6.50;99.90;;;;;;5078935;28;20236;-38
2021/03/07 12:48:57;;;;;;;0.40;0.30;;;6.50;99.90;;;;;;5082516;28;20205;-37
2021/03/07 12:51:28;;;;;;;0.30;0.30;;;6.50;99.90;;;;;;5071915;28;20201;-37
2021/03/07 12:53:58;;;;;;;0.45;0.38;;;6.40;99.90;;;;;;5082549;28;20204;-38
2021/03/07 12:56:30;;;;;;;0.50;0.40;;;6.50;99.90;;;;;;5072667;28;20228;-37
2021/03/07 12:59:00;;;;;;;0.50;0.50;;;6.50;99.90;;;;;;5079385;28;20243;-37
2021/03/07 13:01:30;;;;;;;0.30;0.20;;;6.50;99.90;;;;;;5074611;28;20242;-37
2021/03/07 13:04:01;;;;;;;0.60;0.50;;;6.50;99.90;;;;;;5073680;28;20221;-39
2021/03/07 13:06:31;;;;;;;0.30;0.20;;;6.50;99.90;;;;;;5080918;28;20213;-38
2021/03/07 13:09:01;;;;;;;0.93;0.40;;;6.50;99.90;;;;;;5070793;28;20263;-38
2021/03/07 13:11:32;;;;;;;0.30;0.30;;;6.40;99.90;;;;;;5070974;28;20647;-38
2021/03/07 13:14:02;;;;;;;0.35;0.30;;;6.40;99.90;;;;;;5075057;28;20255;-38
2021/03/07 13:16:32;;;;;;;0.40;0.30;;;6.40;99.90;;;;;;5076254;28;20221;-35
2021/03/07 13:19:03;;;;;;;0.70;0.30;;;6.30;99.90;;;;;;5079074;28;20258;-35
2021/03/07 13:21:33;;;;;;;0.30;0.20;;;6.30;99.90;;;;;;5074458;28;20193;-36
2021/03/07 13:24:03;;;;;;;0.77;0.40;;;6.20;99.90;;;;;;5081508;28;20202;-35
2021/03/07 13:26:34;;;;;;;0.73;0.73;;;6.10;99.90;;;;;;5073592;28;20247;-35
2021/03/07 13:29:04;;;;;;;0.50;0.30;;;6.10;99.90;;;;;;5080078;28;20209;-38